Time;durP1;ratioP1;P1;durP2;ratioP2;P2;SDS_P1;SDS_P2;PMS_P1;PMS_P2;Temp;Humidity;BMP_temperature;BMP_pressure;BME280_temperature;BME280_humidity;BME280_pressure;Samples;Min_cycle;Max_cycle;Signal;HPM_P1;HPM_P2
2024/01/02 00:00:24;;;;;;;3.42;1.75;;;;;;;8.52;100.00;101581.81;4989909;28;20054;-83
2024/01/02 00:03:00;;;;;;;2.63;1.35;;;;;;;8.57;100.00;101585.50;4987566;28;20047;-82
2024/01/02 00:05:29;;;;;;;3.20;1.52;;;;;;;8.61;100.00;101583.94;4987294;28;20053;-84
2024/01/02 00:07:58;;;;;;;4.38;1.67;;;;;;;8.66;100.00;101597.06;4993271;28;20042;-84
2024/01/02 00:10:28;;;;;;;3.40;1.67;;;;;;;8.65;100.00;101595.31;4991452;28;20085;-84
2024/01/02 00:13:00;;;;;;;5.60;1.85;;;;;;;8.59;100.00;101589.03;4986140;28;20052;-84
2024/01/02 00:15:29;;;;;;;3.80;1.95;;;;;;;8.58;100.00;101581.22;4987835;28;20501;-83
2024/01/02 00:17:58;;;;;;;3.88;1.67;;;;;;;8.55;100.00;101579.38;4981807;28;20054;-84
2024/01/02 00:20:27;;;;;;;2.35;1.60;;;;;;;8.52;100.00;101574.06;4993698;28;20042;-84
2024/01/02 00:22:55;;;;;;;3.72;1.67;;;;;;;8.52;100.00;101573.16;4989245;28;20057;-83
2024/01/02 00:25:24;;;;;;;3.80;1.50;;;;;;;8.47;100.00;101570.34;5000640;28;20070;-81
2024/01/02 00:27:55;;;;;;;3.33;1.38;;;;;;;8.46;100.00;101573.75;4998894;28;20078;-82
2024/01/02 00:30:23;;;;;;;2.72;1.38;;;;;;;8.42;100.00;101569.22;4990399;28;20063;-83
2024/01/02 00:32:52;;;;;;;4.20;1.88;;;;;;;8.37;100.00;101576.69;4995119;28;20057;-83
2024/01/02 00:35:21;;;;;;;4.03;1.63;;;;;;;8.36;100.00;101574.03;4993372;28;20050;-84
2024/01/02 00:37:49;;;;;;;3.42;1.52;;;;;;;8.32;100.00;101569.53;5001620;28;20058;-82
2024/01/02 00:40:18;;;;;;;5.88;1.88;;;;;;;8.29;100.00;101575.44;5002827;28;20064;-83
2024/01/02 00:42:47;;;;;;;3.15;1.90;;;;;;;8.28;100.00;101580.50;5013161;28;20034;-83
2024/01/02 00:45:17;;;;;;;3.97;1.90;;;;;;;8.26;100.00;101588.13;5019056;28;20042;-82
2024/01/02 00:47:48;;;;;;;3.50;1.50;;;;;;;8.24;100.00;101583.72;4994797;28;20054;-81
2024/01/02 00:50:17;;;;;;;2.35;1.42;;;;;;;8.22;100.00;101591.34;4987220;28;20058;-82
2024/01/02 00:52:46;;;;;;;2.25;1.45;;;;;;;8.21;100.00;101589.59;4984259;28;20043;-82
2024/01/02 00:55:15;;;;;;;2.63;1.55;;;;;;;8.18;100.00;101592.03;4994003;28;20050;-84
2024/01/02 00:57:46;;;;;;;4.03;1.73;;;;;;;8.16;100.00;101589.34;4999039;28;20092;-84
2024/01/02 01:00:17;;;;;;;2.63;1.50;;;;;;;8.17;100.00;101592.81;5001876;28;20047;-82
2024/01/02 01:02:46;;;;;;;2.40;1.20;;;;;;;8.12;100.00;101592.56;4999271;28;20096;-81
2024/01/02 01:05:14;;;;;;;2.78;1.58;;;;;;;8.00;100.00;101585.91;5001831;28;20508;-83
2024/01/02 01:07:49;;;;;;;2.83;1.63;;;;;;;7.91;100.00;101578.56;4997706;28;20162;-81
2024/01/02 01:10:18;;;;;;;3.33;1.17;;;;;;;7.86;100.00;101577.44;4999522;28;20087;-81
2024/01/02 01:12:46;;;;;;;2.38;1.33;;;;;;;7.86;100.00;101573.16;5000470;28;20055;-83
2024/01/02 01:15:16;;;;;;;4.40;1.85;;;;;;;7.88;100.00;101576.72;5001096;28;20057;-82
2024/01/02 01:17:48;;;;;;;3.95;1.48;;;;;;;7.90;100.00;101580.25;4994987;28;20068;-82
2024/01/02 01:20:19;;;;;;;2.70;1.13;;;;;;;7.82;100.00;101575.50;4996239;28;20077;-84
2024/01/02 01:22:48;;;;;;;3.28;1.83;;;;;;;7.74;100.00;101573.41;4994204;28;20069;-82
2024/01/02 01:25:17;;;;;;;2.30;1.40;;;;;;;7.67;100.00;101580.69;5000858;28;20494;-82
2024/01/02 01:27:45;;;;;;;3.15;1.33;;;;;;;7.60;100.00;101573.44;5001412;28;20145;-83
2024/01/02 01:30:23;;;;;;;2.75;1.20;;;;;;;7.54;100.00;101579.16;5003198;28;20058;-82
2024/01/02 01:32:51;;;;;;;4.68;1.73;;;;;;;7.52;100.00;101571.34;4999837;28;20057;-82
2024/01/02 01:35:22;;;;;;;2.95;1.30;;;;;;;7.57;100.00;101573.28;4994606;28;20093;-81
2024/01/02 01:38:09;;;;;;;4.43;1.90;;;;;;;7.58;100.00;101575.91;5003049;28;20097;-83
2024/01/02 01:40:38;;;;;;;2.40;1.33;;;;;;;7.59;100.00;101580.28;4998097;28;20039;-82
2024/01/02 01:43:13;;;;;;;2.53;1.25;;;;;;;7.57;100.00;101563.84;5001143;28;20060;-83
2024/01/02 01:45:44;;;;;;;3.42;2.00;;;;;;;7.53;100.00;101549.03;5000206;28;20056;-83
2024/01/02 01:48:13;;;;;;;3.42;1.40;;;;;;;7.46;100.00;101540.09;4998623;28;20050;-83
2024/01/02 01:50:42;;;;;;;4.10;1.77;;;;;;;7.46;100.00;101532.34;5000231;28;20144;-82
2024/01/02 01:53:20;;;;;;;4.28;1.75;;;;;;;7.45;100.00;101528.03;4993205;28;20054;-83
2024/01/02 01:55:50;;;;;;;3.10;1.85;;;;;;;7.29;100.00;101521.16;4997581;28;20050;-84
2024/01/02 01:58:19;;;;;;;3.72;1.75;;;;;;;7.23;100.00;101525.94;5001579;28;20057;-83
2024/01/02 02:00:54;;;;;;;6.65;2.10;;;;;;;7.22;100.00;101538.75;4992879;28;20050;-83
2024/01/02 02:03:28;;;;;;;3.63;1.80;;;;;;;7.23;100.00;101535.38;5000876;28;20062;-84
2024/01/02 02:05:57;;;;;;;3.53;1.85;;;;;;;7.29;100.00;101544.31;4995318;28;20488;-83
2024/01/02 02:08:26;;;;;;;2.50;1.50;;;;;;;7.34;100.00;101539.41;5004580;28;20041;-84
2024/01/02 02:10:57;;;;;;;5.25;2.13;;;;;;;7.39;100.00;101548.28;5001975;28;20066;-84
2024/01/02 02:13:28;;;;;;;3.63;1.80;;;;;;;7.39;100.00;101542.25;4993225;28;20050;-85
2024/01/02 02:15:58;;;;;;;6.03;3.17;;;;;;;7.39;100.00;101535.41;4990125;28;20042;-84
2024/01/02 02:18:27;;;;;;;6.18;2.80;;;;;;;7.41;100.00;101545.81;4987801;28;20077;-85
2024/01/02 02:20:57;;;;;;;5.20;3.67;;;;;;;7.35;100.00;101541.19;4979629;28;21004;-84
2024/01/02 02:23:38;;;;;;;5.60;2.90;;;;;;;7.37;100.00;101544.72;4989022;28;20046;-88
2024/01/02 02:26:11;;;;;;;10.70;4.15;;;;;;;7.37;100.00;101549.00;4993037;28;20049;-92
2024/01/02 02:28:48;;;;;;;7.72;3.35;;;;;;;7.39;100.00;101547.41;4984485;28;20137;-86
2024/01/02 02:31:19;;;;;;;9.20;5.13;;;;;;;7.36;100.00;101542.09;4989230;28;20159;-84
2024/01/02 02:33:49;;;;;;;12.05;4.10;;;;;;;7.37;100.00;101525.81;4988952;28;20074;-85
2024/01/02 02:36:20;;;;;;;16.65;10.25;;;;;;;7.35;100.00;101515.44;4989322;28;20046;-86
2024/01/02 02:38:55;;;;;;;15.67;10.33;;;;;;;7.36;100.00;101514.66;4988255;28;20137;-87
2024/01/02 02:41:27;;;;;;;9.98;4.82;;;;;;;7.32;100.00;101504.97;4985606;28;20054;-85
2024/01/02 02:43:55;;;;;;;28.48;14.02;;;;;;;7.27;100.00;101499.59;4996337;28;20077;-82
2024/01/02 02:46:30;;;;;;;13.95;6.60;;;;;;;7.28;100.00;101498.81;4987135;28;20046;-85
2024/01/02 02:48:59;;;;;;;12.95;4.35;;;;;;;7.24;100.00;101498.50;4988526;28;20504;-84
2024/01/02 02:51:28;;;;;;;10.65;4.07;;;;;;;7.10;100.00;101490.03;4988932;28;20053;-83
2024/01/02 02:54:02;;;;;;;8.05;3.50;;;;;;;6.98;100.00;101479.06;4988641;28;20046;-83
2024/01/02 02:56:39;;;;;;;8.27;4.35;;;;;;;6.97;100.00;101491.06;4991018;28;20089;-83
2024/01/02 02:59:08;;;;;;;9.18;4.18;;;;;;;7.03;100.00;101485.34;4987549;28;21710;-82
2024/01/02 03:01:37;;;;;;;9.75;5.00;;;;;;;7.07;100.00;101485.59;4990925;28;20050;-83
2024/01/02 03:04:07;;;;;;;9.32;4.25;;;;;;;7.12;100.00;101488.44;4987545;28;20078;-84
2024/01/02 03:06:38;;;;;;;10.98;5.00;;;;;;;7.17;100.00;101497.31;4991701;28;20050;-82
2024/01/02 03:09:10;;;;;;;9.30;4.93;;;;;;;7.17;100.00;101484.44;4989299;28;20118;-84
2024/01/02 03:11:38;;;;;;;10.18;4.70;;;;;;;7.22;100.00;101480.44;4991075;28;20051;-84
2024/01/02 03:14:17;;;;;;;11.25;4.85;;;;;;;7.23;100.00;101474.47;4989978;28;20054;-84
2024/01/02 03:16:45;;;;;;;9.15;4.60;;;;;;;7.23;100.00;101471.91;4987984;28;20054;-84
2024/01/02 03:19:14;;;;;;;11.77;4.43;;;;;;;7.13;100.00;101451.63;4991039;28;20066;-85
2024/01/02 03:21:43;;;;;;;7.68;4.47;;;;;;;7.07;100.00;101444.44;4990833;28;20112;-84
2024/01/02 03:24:18;;;;;;;9.13;4.68;;;;;;;7.08;100.00;101448.81;4990917;28;20054;-83
2024/01/02 03:26:48;;;;;;;8.77;3.92;;;;;;;7.12;100.00;101452.41;4994058;28;20050;-83
2024/01/02 03:29:18;;;;;;;9.70;3.75;;;;;;;7.15;100.00;101460.31;4995130;28;20058;-84
2024/01/02 03:31:46;;;;;;;10.15;4.15;;;;;;;7.16;100.00;101456.94;4975628;28;20408;-83
2024/01/02 03:34:15;;;;;;;7.75;3.55;;;;;;;7.15;100.00;101452.59;4975403;28;20130;-82
2024/01/02 03:36:44;;;;;;;10.43;3.95;;;;;;;7.13;100.00;101454.19;4975759;28;20054;-84
2024/01/02 03:39:16;;;;;;;8.25;3.80;;;;;;;7.05;100.00;101445.16;4977577;28;20070;-83
2024/01/02 03:41:44;;;;;;;6.25;3.60;;;;;;;7.03;100.00;101429.66;4973721;28;20047;-82
2024/01/02 03:44:22;;;;;;;6.60;3.67;;;;;;;7.05;100.00;101416.84;4978510;28;20074;-83
2024/01/02 03:46:51;;;;;;;8.60;3.90;;;;;;;6.93;100.00;101423.09;4974573;28;20055;-83
2024/01/02 03:49:20;;;;;;;7.03;3.40;;;;;;;6.83;100.00;101422.53;4973216;28;20051;-83
2024/01/02 03:51:48;;;;;;;8.90;3.63;;;;;;;6.80;100.00;101418.06;4974582;28;20042;-84
2024/01/02 03:54:23;;;;;;;7.78;4.00;;;;;;;6.84;100.00;101414.88;4975955;28;20050;-83
2024/01/02 03:56:50;;;;;;;5.60;3.03;;;;;;;6.85;100.00;101408.03;4983650;28;20069;-83
2024/01/02 03:59:19;;;;;;;6.97;3.08;;;;;;;6.84;100.00;101412.31;4974049;28;20110;-82
2024/01/02 04:01:48;;;;;;;7.63;3.50;;;;;;;6.87;100.00;101412.50;4975164;28;20061;-82
2024/01/02 04:04:19;;;;;;;8.32;3.22;;;;;;;6.87;100.00;101411.59;4972376;28;20118;-83
2024/01/02 04:06:50;;;;;;;6.90;3.10;;;;;;;6.95;100.00;101414.59;4974961;28;20069;-83
2024/01/02 04:09:21;;;;;;;2.75;1.33;;;;;;;6.95;100.00;101420.63;4973069;28;20057;-83
2024/01/02 04:11:50;;;;;;;7.07;2.80;;;;;;;6.92;100.00;101421.34;4971421;28;20078;-83
2024/01/02 04:14:19;;;;;;;7.68;3.63;;;;;;;6.92;100.00;101441.94;4974188;28;20069;-82
2024/01/02 04:16:50;;;;;;;10.30;3.67;;;;;;;6.92;100.00;101447.06;4973233;28;20058;-84
2024/01/02 04:19:21;;;;;;;8.77;4.22;;;;;;;6.93;100.00;101448.81;4972767;28;20057;-83
2024/01/02 04:21:50;;;;;;;10.38;4.10;;;;;;;6.97;100.00;101451.59;4973546;28;20066;-83
2024/01/02 04:24:31;;;;;;;;;;;;;;;;;;;;;
2024/01/02 04:27:00;;;;;;;8.05;3.75;;;;;;;6.89;100.00;101446.00;4978726;28;20051;-83
2024/01/02 04:29:29;;;;;;;7.15;3.20;;;;;;;6.91;100.00;101450.44;4977380;28;20145;-82
2024/01/02 04:31:59;;;;;;;7.20;3.47;;;;;;;6.92;100.00;101443.63;4992946;28;20054;-84
2024/01/02 04:34:30;;;;;;;6.55;3.25;;;;;;;6.94;100.00;101439.44;4992994;28;20401;-83
2024/01/02 04:36:59;;;;;;;7.68;3.45;;;;;;;6.90;100.00;101429.78;4992133;28;20054;-84
2024/01/02 04:39:33;;;;;;;6.63;2.75;;;;;;;6.92;100.00;101426.50;4993141;28;20046;-84
2024/01/02 04:42:14;;;;;;;6.07;2.65;;;;;;;6.91;100.00;101419.56;4993265;28;20047;-83
2024/01/02 04:44:43;;;;;;;7.82;4.00;;;;;;;6.92;100.00;101423.03;4992717;28;20487;-83
2024/01/02 04:47:12;;;;;;;6.70;3.47;;;;;;;6.91;100.00;101427.28;4994643;28;20068;-84
2024/01/02 04:49:41;;;;;;;5.13;2.08;;;;;;;6.95;100.00;101414.59;4993020;28;20058;-83
2024/01/02 04:52:12;;;;;;;7.05;2.63;;;;;;;6.93;100.00;101406.78;4992608;28;20058;-83
2024/01/02 04:54:45;;;;;;;6.25;2.67;;;;;;;6.94;100.00;101403.44;4985713;28;20054;-82
2024/01/02 04:57:14;;;;;;;6.43;3.53;;;;;;;6.92;100.00;101390.47;4989388;28;20054;-82
2024/01/02 04:59:42;;;;;;;5.95;2.63;;;;;;;6.97;100.00;101403.59;4984534;28;20436;-82
2024/01/02 05:02:22;;;;;;;5.60;3.15;;;;;;;6.95;100.00;101399.16;4984504;28;20077;-82
2024/01/02 05:04:51;;;;;;;5.82;2.40;;;;;;;6.91;100.00;101383.53;4987698;28;20046;-82
2024/01/02 05:07:20;;;;;;;7.25;3.35;;;;;;;6.91;100.00;101362.97;4994643;28;20055;-82
2024/01/02 05:09:55;;;;;;;5.13;2.80;;;;;;;6.86;100.00;101358.38;4994618;28;20120;-82
2024/01/02 05:12:24;;;;;;;5.63;2.30;;;;;;;6.83;100.00;101368.50;4992809;28;20077;-82
2024/01/02 05:14:55;;;;;;;5.55;2.65;;;;;;;6.77;100.00;101363.91;4995260;28;20053;-82
2024/01/02 05:17:24;;;;;;;4.97;2.60;;;;;;;6.75;100.00;101357.78;4992720;28;20066;-83
2024/01/02 05:20:01;;;;;;;5.43;2.45;;;;;;;6.75;100.00;101344.06;4987690;28;20066;-82
2024/01/02 05:22:30;;;;;;;6.25;2.80;;;;;;;6.74;100.00;101338.03;4991081;28;20051;-82
2024/01/02 05:25:00;;;;;;;5.07;2.92;;;;;;;6.72;100.00;101344.78;4994446;28;20054;-82
2024/01/02 05:27:29;;;;;;;7.38;2.88;;;;;;;6.75;100.00;101349.19;5000974;28;20043;-82
2024/01/02 05:30:08;;;;;;;6.03;3.70;;;;;;;6.67;100.00;101341.06;4992144;28;20595;-83
2024/01/02 05:32:36;;;;;;;5.82;3.03;;;;;;;6.69;100.00;101348.06;4993763;28;20056;-82
2024/01/02 05:35:06;;;;;;;5.88;3.03;;;;;;;6.63;100.00;101341.69;4991409;28;20050;-82
2024/01/02 05:37:37;;;;;;;5.53;2.97;;;;;;;6.56;100.00;101337.91;4992705;28;20050;-82
2024/01/02 05:40:09;;;;;;;4.50;2.60;;;;;;;6.60;100.00;101346.69;4990046;28;20051;-81
2024/01/02 05:42:38;;;;;;;5.90;2.80;;;;;;;6.61;100.00;101341.59;4983819;28;20051;-81
2024/01/02 05:45:07;;;;;;;6.78;3.05;;;;;;;6.63;100.00;101334.88;4994676;28;20061;-81
2024/01/02 05:47:36;;;;;;;2.95;1.77;;;;;;;6.63;100.00;101334.00;4992912;28;20069;-81
2024/01/02 05:50:06;;;;;;;4.40;2.33;;;;;;;6.62;100.00;101337.34;4991204;28;20053;-82
2024/01/02 05:52:34;;;;;;;4.55;2.10;;;;;;;6.58;100.00;101335.44;4989755;28;20100;-82
2024/01/02 05:55:03;;;;;;;5.10;2.38;;;;;;;6.56;100.00;101331.88;4993376;28;20042;-81
2024/01/02 05:57:35;;;;;;;7.20;2.60;;;;;;;6.53;100.00;101321.41;4994614;28;20129;-82
2024/01/02 06:00:11;;;;;;;5.45;2.50;;;;;;;6.54;100.00;101318.94;4992351;28;20060;-82
2024/01/02 06:02:39;;;;;;;6.40;2.33;;;;;;;6.52;100.00;101314.50;4991167;28;20054;-82
2024/01/02 06:05:09;;;;;;;4.78;2.60;;;;;;;6.50;100.00;101310.19;4992749;28;20105;-82
2024/01/02 06:07:38;;;;;;;6.80;2.47;;;;;;;6.53;100.00;101318.84;4993915;28;20523;-82
2024/01/02 06:10:11;;;;;;;6.63;2.30;;;;;;;6.49;100.00;101305.81;4989888;28;20062;-82
2024/01/02 06:12:41;;;;;;;6.45;3.20;;;;;;;6.52;100.00;101306.81;4992701;28;20085;-82
2024/01/02 06:15:11;;;;;;;4.57;2.40;;;;;;;6.48;100.00;101309.22;4993702;28;20113;-82
2024/01/02 06:17:39;;;;;;;5.78;2.40;;;;;;;6.43;100.00;101299.47;4989335;28;20125;-82
2024/01/02 06:20:12;;;;;;;4.68;2.40;;;;;;;6.43;100.00;101300.34;4993423;28;20050;-83
2024/01/02 06:22:41;;;;;;;5.35;2.33;;;;;;;6.41;100.00;101286.53;4988517;28;20046;-82
2024/01/02 06:25:10;;;;;;;4.93;2.28;;;;;;;6.40;100.00;101295.03;4990813;28;20073;-83
2024/01/02 06:27:41;;;;;;;4.72;2.13;;;;;;;6.28;100.00;101289.25;4997327;28;20125;-81
2024/01/02 06:30:17;;;;;;;3.13;2.00;;;;;;;6.16;100.00;101293.69;4992952;28;20454;-82
2024/01/02 06:32:46;;;;;;;1.35;1.20;;;;;;;6.08;100.00;101293.25;4987952;28;20141;-82
2024/01/02 06:35:15;;;;;;;5.00;2.03;;;;;;;6.04;100.00;101287.06;4991744;28;20060;-81
2024/01/02 06:37:43;;;;;;;15.45;2.72;;;;;;;6.02;100.00;101298.91;4993075;28;20126;-82
2024/01/02 06:40:15;;;;;;;6.20;2.53;;;;;;;6.06;100.00;101312.84;4992914;28;20051;-82
2024/01/02 06:42:45;;;;;;;4.07;2.05;;;;;;;6.08;100.00;101317.25;4992702;28;20099;-81
2024/01/02 06:45:14;;;;;;;4.53;1.90;;;;;;;6.10;100.00;101316.47;4991084;28;20053;-81
2024/01/02 06:47:42;;;;;;;4.07;2.05;;;;;;;6.11;100.00;101319.13;4990409;28;20058;-82
2024/01/02 06:50:18;;;;;;;6.20;2.35;;;;;;;6.10;100.00;101308.78;4991896;28;20078;-82
2024/01/02 06:52:47;;;;;;;3.00;1.83;;;;;;;6.07;100.00;101307.81;4989969;28;20054;-82
2024/01/02 06:55:16;;;;;;;5.85;2.53;;;;;;;6.07;100.00;101312.94;4990968;28;20054;-81
2024/01/02 06:57:47;;;;;;;5.57;2.35;;;;;;;6.08;100.00;101301.84;4988232;28;20062;-81
2024/01/02 07:00:23;;;;;;;6.07;2.63;;;;;;;6.05;100.00;101305.94;4988914;28;20058;-83
2024/01/02 07:02:52;;;;;;;4.70;2.08;;;;;;;6.02;100.00;101306.63;4991565;28;20057;-82
2024/01/02 07:05:20;;;;;;;4.88;2.53;;;;;;;6.00;100.00;101308.25;4992298;28;20068;-82
2024/01/02 07:07:49;;;;;;;5.75;2.50;;;;;;;5.99;100.00;101300.44;4992560;28;20096;-82
2024/01/02 07:10:25;;;;;;;4.35;2.47;;;;;;;6.00;100.00;101307.34;4979996;28;20046;-84
2024/01/02 07:12:56;;;;;;;6.10;2.10;;;;;;;6.02;100.00;101306.63;4980972;28;20054;-84
2024/01/02 07:15:25;;;;;;;5.93;2.95;;;;;;;5.98;100.00;101303.81;4985522;28;20057;-82
2024/01/02 07:17:53;;;;;;;4.63;2.20;;;;;;;5.97;100.00;101302.91;4992504;28;20105;-84
2024/01/02 07:20:25;;;;;;;6.97;2.42;;;;;;;5.94;100.00;101297.63;4992422;28;20061;-84
2024/01/02 07:22:54;;;;;;;5.70;2.00;;;;;;;5.88;100.00;101292.09;4990221;28;20097;-84
2024/01/02 07:25:23;;;;;;;4.30;2.33;;;;;;;5.78;100.00;101274.41;4986746;28;20054;-83
2024/01/02 07:27:51;;;;;;;3.65;2.25;;;;;;;5.83;100.00;101281.56;5000514;28;20093;-83
2024/01/02 07:30:22;;;;;;;4.90;2.10;;;;;;;5.87;100.00;101274.94;5003371;28;20054;-82
2024/01/02 07:32:50;;;;;;;5.20;2.67;;;;;;;5.90;100.00;101269.94;4997846;28;20045;-83
2024/01/02 07:35:19;;;;;;;3.33;1.65;;;;;;;5.92;100.00;101272.63;4991936;28;20518;-83
2024/01/02 07:37:48;;;;;;;3.95;2.20;;;;;;;5.93;100.00;101277.81;4992210;28;20129;-83
2024/01/02 07:40:17;;;;;;;4.60;2.60;;;;;;;5.92;100.00;101280.31;4991320;28;20416;-83
2024/01/02 07:42:51;;;;;;;5.30;3.05;;;;;;;5.91;100.00;101284.59;4992574;28;20065;-83
2024/01/02 07:45:22;;;;;;;5.75;2.65;;;;;;;5.92;100.00;101282.91;4999502;28;20062;-83
2024/01/02 07:47:50;;;;;;;7.07;2.38;;;;;;;5.88;100.00;101280.13;4991917;28;20086;-83
2024/01/02 07:50:19;;;;;;;5.35;2.97;;;;;;;5.86;100.00;101278.28;4983396;28;20058;-83
2024/01/02 07:52:51;;;;;;;5.85;2.40;;;;;;;5.86;100.00;101273.13;4989684;28;20055;-83
2024/01/02 07:55:20;;;;;;;5.25;2.65;;;;;;;5.82;100.00;101255.81;4990375;28;20050;-83
2024/01/02 07:57:48;;;;;;;3.25;2.20;;;;;;;5.82;100.00;101254.13;4989693;28;20141;-84
2024/01/02 08:00:18;;;;;;;6.60;3.22;;;;;;;5.81;100.00;101256.59;4983602;28;20057;-82
2024/01/02 08:02:53;;;;;;;6.97;2.33;;;;;;;5.76;100.00;101247.75;4988082;28;20129;-83
2024/01/02 08:05:22;;;;;;;6.70;2.55;;;;;;;5.71;100.00;101246.63;4991372;28;20128;-82
2024/01/02 08:07:51;;;;;;;5.32;2.08;;;;;;;5.68;100.00;101255.03;4989171;28;20077;-82
2024/01/02 08:10:20;;;;;;;5.28;2.20;;;;;;;5.62;100.00;101258.13;4992752;28;20137;-82
2024/01/02 08:12:51;;;;;;;5.55;2.50;;;;;;;5.59;100.00;101263.09;4995975;28;20121;-82
2024/01/02 08:15:23;;;;;;;6.53;2.40;;;;;;;5.54;100.00;101255.91;4995499;28;20195;-83
2024/01/02 08:17:53;;;;;;;6.40;2.38;;;;;;;5.54;100.00;101259.34;4995636;28;20050;-83
2024/01/02 08:20:22;;;;;;;4.85;2.28;;;;;;;5.56;100.00;101257.75;4994958;28;20061;-83
2024/01/02 08:22:50;;;;;;;5.53;2.35;;;;;;;5.58;100.00;101255.28;4995356;28;20062;-83
2024/01/02 08:25:26;;;;;;;5.75;2.65;;;;;;;5.57;100.00;101249.28;4988026;28;20050;-83
2024/01/02 08:27:55;;;;;;;9.05;2.80;;;;;;;5.59;100.00;101247.69;4990466;28;20072;-82
2024/01/02 08:30:24;;;;;;;5.90;2.85;;;;;;;5.58;100.00;101245.00;4995240;28;20335;-82
2024/01/02 08:32:54;;;;;;;7.88;3.20;;;;;;;5.53;100.00;101241.31;4995340;28;20070;-82
2024/01/02 08:35:25;;;;;;;6.07;2.72;;;;;;;5.45;100.00;101238.28;4994910;28;20046;-83
2024/01/02 08:37:54;;;;;;;15.50;2.90;;;;;;;5.42;100.00;101232.97;4995038;28;20050;-83
2024/01/02 08:40:23;;;;;;;4.95;2.70;;;;;;;5.36;100.00;101230.03;4994120;28;20129;-84
2024/01/02 08:42:51;;;;;;;6.15;3.08;;;;;;;5.28;100.00;101221.03;4995065;28;20057;-83
2024/01/02 08:45:22;;;;;;;8.90;3.25;;;;;;;5.16;100.00;101211.81;5002236;28;20056;-83
2024/01/02 08:47:51;;;;;;;10.10;3.47;;;;;;;5.09;100.00;101217.41;4985928;28;20070;-83
2024/01/02 08:50:22;;;;;;;6.35;3.22;;;;;;;5.00;100.00;101206.59;4986974;28;20145;-83
2024/01/02 08:52:52;;;;;;;10.13;3.67;;;;;;;5.01;100.00;101213.47;4987167;28;20074;-83
2024/01/02 08:55:21;;;;;;;10.75;3.55;;;;;;;4.99;100.00;101221.09;4994388;28;20137;-83
2024/01/02 08:57:50;;;;;;;11.00;3.40;;;;;;;5.00;100.00;101212.59;4992852;28;20129;-82
2024/01/02 09:00:20;;;;;;;8.07;2.80;;;;;;;5.04;100.00;101222.25;4992549;28;20062;-83
2024/01/02 09:02:49;;;;;;;6.95;2.80;;;;;;;5.08;100.00;101225.00;4995254;28;20066;-82
2024/01/02 09:05:18;;;;;;;7.25;3.08;;;;;;;5.04;100.00;101218.81;4994978;28;20062;-83
2024/01/02 09:07:56;;;;;;;6.15;2.60;;;;;;;4.95;100.00;101223.41;4994704;28;20042;-83
2024/01/02 09:10:25;;;;;;;5.10;2.25;;;;;;;4.90;100.00;101219.66;4991945;28;20054;-83
2024/01/02 09:12:53;;;;;;;7.05;2.67;;;;;;;4.87;100.00;101210.09;4990959;28;20456;-83
2024/01/02 09:15:22;;;;;;;3.28;2.28;;;;;;;4.83;100.00;101213.25;4990677;28;20050;-83
2024/01/02 09:17:54;;;;;;;6.80;2.55;;;;;;;4.74;100.00;101203.38;4990951;28;20129;-84
2024/01/02 09:20:23;;;;;;;3.97;2.27;;;;;;;4.70;100.00;101203.97;4994702;28;20493;-83
2024/01/02 09:22:53;;;;;;;4.57;2.25;;;;;;;4.61;100.00;101205.97;4991272;28;20046;-83
2024/01/02 09:25:28;;;;;;;3.65;1.90;;;;;;;4.60;100.00;101204.19;4992234;28;20082;-84
2024/01/02 09:28:00;;;;;;;6.25;2.78;;;;;;;4.62;100.00;101202.63;4987124;28;20050;-83
2024/01/02 09:30:30;;;;;;;3.30;1.65;;;;;;;4.59;100.00;101202.44;4992419;28;20057;-84
2024/01/02 09:32:59;;;;;;;8.82;2.30;;;;;;;4.51;100.00;101199.41;4994683;28;20058;-82
2024/01/02 09:35:30;;;;;;;4.07;2.03;;;;;;;4.49;100.00;101198.44;4992858;28;20050;-83
2024/01/02 09:38:04;;;;;;;7.30;2.17;;;;;;;4.51;100.00;101194.28;4994163;28;20044;-82
2024/01/02 09:41:04;;;;;;;7.05;2.10;;;;;;;4.49;100.00;101194.97;4993474;28;20050;-83
2024/01/02 09:43:43;;;;;;;3.65;1.80;;;;;;;4.54;100.00;101198.72;4997152;28;20053;-83
2024/01/02 09:46:22;;;;;;;3.75;1.75;;;;;;;4.59;100.00;101187.06;4994732;28;20058;-83
2024/01/02 09:49:06;;;;;;;3.20;1.55;;;;;;;4.60;100.00;101193.94;4993067;28;20061;-83
2024/01/02 09:51:52;;;;;;;5.30;1.77;;;;;;;4.60;100.00;101188.81;4992967;28;20061;-82
2024/01/02 09:54:42;;;;;;;3.75;1.85;;;;;;;4.64;100.00;101184.78;4992354;28;20050;-83
2024/01/02 09:57:17;;;;;;;4.80;2.28;;;;;;;4.61;100.00;101183.78;4994309;28;20069;-82
2024/01/02 10:00:03;;;;;;;4.57;2.05;;;;;;;4.65;100.00;101192.56;4982793;28;20047;-83
2024/01/02 10:02:54;;;;;;;2.90;1.40;;;;;;;4.65;100.00;101191.66;4991969;28;20141;-83
2024/01/02 10:05:44;;;;;;;3.78;1.95;;;;;;;4.66;100.00;101183.19;4984312;28;20039;-84
2024/01/02 10:08:36;;;;;;;3.90;1.90;;;;;;;4.67;100.00;101193.50;4992679;28;20053;-83
2024/01/02 10:11:18;;;;;;;4.05;1.75;;;;;;;4.64;100.00;101188.22;4986949;28;20050;-83
2024/01/02 10:14:02;;;;;;;;;;;;;;;;;;;;;
2024/01/02 10:16:39;;;;;;;4.15;2.28;;;;;;;4.51;100.00;101185.69;4987890;28;20065;-83
2024/01/02 10:19:23;;;;;;;2.75;1.77;;;;;;;4.45;100.00;101182.78;4989411;28;20054;-83
2024/01/02 10:22:02;;;;;;;5.30;2.40;;;;;;;4.41;100.00;101179.13;4987146;28;20054;-83
2024/01/02 10:24:45;;;;;;;4.00;2.33;;;;;;;4.44;100.00;101181.00;4983901;28;20053;-83
2024/01/02 10:27:18;;;;;;;3.60;1.67;;;;;;;4.48;100.00;101165.91;4995056;28;20062;-83
2024/01/02 10:30:03;;;;;;;3.42;1.75;;;;;;;4.54;100.00;101157.72;4993097;28;20109;-83
2024/01/02 10:32:54;;;;;;;4.72;2.30;;;;;;;4.61;100.00;101159.84;4985863;28;20042;-83
2024/01/02 10:35:29;;;;;;;2.67;1.83;;;;;;;4.64;100.00;101151.44;4982741;28;20130;-83
2024/01/02 10:38:12;;;;;;;4.03;1.63;;;;;;;4.65;100.00;101142.97;4992975;28;20515;-82
2024/01/02 10:40:43;;;;;;;3.38;1.63;;;;;;;4.61;100.00;101144.47;4986145;28;20643;-83
2024/01/02 10:43:26;;;;;;;4.10;2.25;;;;;;;4.59;100.00;101139.25;4989110;28;20046;-82
2024/01/02 10:46:00;;;;;;;5.70;2.60;;;;;;;4.56;100.00;101128.81;4996912;28;20054;-83
2024/01/02 10:48:53;;;;;;;5.07;2.15;;;;;;;4.58;100.00;101123.75;4992845;28;20046;-83
2024/01/02 10:51:29;;;;;;;5.53;1.80;;;;;;;4.58;100.00;101121.19;4989744;28;20492;-82
2024/01/02 10:54:07;;;;;;;5.25;2.03;;;;;;;4.63;100.00;101127.50;4984861;28;20133;-82
2024/01/02 10:56:42;;;;;;;4.05;1.92;;;;;;;4.62;100.00;101118.03;4993208;28;20046;-82
2024/01/02 10:59:31;;;;;;;4.80;2.28;;;;;;;4.66;100.00;101108.84;4988068;28;20046;-83
2024/01/02 11:02:04;;;;;;;3.20;2.28;;;;;;;4.63;100.00;101107.00;4986413;28;20054;-82
2024/01/02 11:04:52;;;;;;;4.68;1.95;;;;;;;4.58;100.00;101098.13;4990708;28;20050;-82
2024/01/02 11:07:28;;;;;;;3.90;2.25;;;;;;;4.57;100.00;101111.75;4985093;28;20050;-83
2024/01/02 11:10:08;;;;;;;3.45;2.03;;;;;;;4.53;100.00;101099.56;4984818;28;20058;-83
2024/01/02 11:12:45;;;;;;;2.17;1.25;;;;;;;4.60;100.00;101114.50;4984124;28;20125;-83
2024/01/02 11:15:21;;;;;;;4.97;2.00;;;;;;;4.61;100.00;101108.59;4991602;28;20412;-83
2024/01/02 11:17:52;;;;;;;4.00;2.00;;;;;;;4.52;100.00;101103.78;4987509;28;20050;-82
2024/01/02 11:20:23;;;;;;;2.65;1.58;;;;;;;4.44;100.00;101099.00;4992326;28;20057;-82
2024/01/02 11:23:02;;;;;;;3.35;1.75;;;;;;;4.44;100.00;101109.25;4984850;28;20052;-82
2024/01/02 11:25:34;;;;;;;4.07;1.40;;;;;;;4.51;100.00;101108.81;4988759;28;20062;-82
2024/01/02 11:28:06;;;;;;;3.03;1.63;;;;;;;4.51;100.00;101104.59;4987993;28;20124;-82
2024/01/02 11:30:37;;;;;;;3.58;1.95;;;;;;;4.56;100.00;101092.94;4986960;28;20051;-83
2024/01/02 11:33:21;;;;;;;3.15;1.60;;;;;;;4.57;100.00;101073.31;4991859;28;20054;-82
2024/01/02 11:36:07;;;;;;;2.80;1.30;;;;;;;4.67;100.00;101080.72;4985334;28;20137;-83
2024/01/02 11:38:47;;;;;;;3.15;1.58;;;;;;;4.68;100.00;101071.38;4987113;28;20043;-82
2024/01/02 11:41:28;;;;;;;2.55;1.33;;;;;;;4.68;100.00;101079.97;4987146;28;20141;-82
2024/01/02 11:44:03;;;;;;;2.53;1.60;;;;;;;4.64;100.00;101072.88;4995932;28;20657;-82
2024/01/02 11:46:42;;;;;;;3.40;1.70;;;;;;;4.63;100.00;101055.75;4989396;28;20047;-82
2024/01/02 11:49:18;;;;;;;2.92;2.00;;;;;;;4.64;100.00;101062.63;4996353;28;20104;-81